sensor_id;sensor_type;location;lat;lon;timestamp;P1;durP1;ratioP1;P2;durP2;ratioP2
52067;SDS011;60237;52.338;21.228;2024-01-25T00:02:17;1086.38;;;102.90;;
52067;SDS011;60237;52.338;21.228;2024-01-25T00:04:44;1011.85;;;94.38;;
52067;SDS011;60237;52.338;21.228;2024-01-25T00:07:11;1021.47;;;94.55;;
52067;SDS011;60237;52.338;21.228;2024-01-25T00:09:38;1032.40;;;97.28;;
52067;SDS011;60237;52.338;21.228;2024-01-25T00:12:05;1018.15;;;94.78;;
52067;SDS011;60237;52.338;21.228;2024-01-25T00:14:32;1008.25;;;94.65;;
52067;SDS011;60237;52.338;21.228;2024-01-25T00:16:58;1022.38;;;95.72;;
52067;SDS011;60237;52.338;21.228;2024-01-25T00:19:25;1030.78;;;97.43;;
52067;SDS011;60237;52.338;21.228;2024-01-25T00:21:52;1015.45;;;94.88;;
52067;SDS011;60237;52.338;21.228;2024-01-25T00:24:19;1100.75;;;104.90;;
52067;SDS011;60237;52.338;21.228;2024-01-25T00:26:45;1064.38;;;100.35;;
52067;SDS011;60237;52.338;21.228;2024-01-25T00:29:12;1015.22;;;94.93;;
52067;SDS011;60237;52.338;21.228;2024-01-25T00:31:39;1065.75;;;101.07;;
52067;SDS011;60237;52.338;21.228;2024-01-25T00:34:06;1027.43;;;95.70;;
52067;SDS011;60237;52.338;21.228;2024-01-25T00:36:33;1016.90;;;95.13;;
52067;SDS011;60237;52.338;21.228;2024-01-25T00:38:59;1067.93;;;100.95;;
52067;SDS011;60237;52.338;21.228;2024-01-25T00:41:26;1081.50;;;102.25;;
52067;SDS011;60237;52.338;21.228;2024-01-25T00:43:53;1043.68;;;98.03;;
52067;SDS011;60237;52.338;21.228;2024-01-25T00:46:20;1027.65;;;96.35;;
52067;SDS011;60237;52.338;21.228;2024-01-25T00:48:47;1035.72;;;97.35;;
52067;SDS011;60237;52.338;21.228;2024-01-25T00:51:14;1013.90;;;94.45;;
52067;SDS011;60237;52.338;21.228;2024-01-25T00:53:42;1009.75;;;94.15;;
52067;SDS011;60237;52.338;21.228;2024-01-25T00:56:09;1073.32;;;100.90;;
52067;SDS011;60237;52.338;21.228;2024-01-25T00:58:36;1016.92;;;94.93;;
52067;SDS011;60237;52.338;21.228;2024-01-25T01:01:03;1043.47;;;97.35;;
52067;SDS011;60237;52.338;21.228;2024-01-25T01:03:30;1028.45;;;96.15;;
52067;SDS011;60237;52.338;21.228;2024-01-25T01:05:56;1050.00;;;98.10;;
52067;SDS011;60237;52.338;21.228;2024-01-25T01:08:24;1038.72;;;97.15;;
52067;SDS011;60237;52.338;21.228;2024-01-25T01:10:52;1062.50;;;100.18;;
52067;SDS011;60237;52.338;21.228;2024-01-25T01:13:19;1051.20;;;98.63;;
52067;SDS011;60237;52.338;21.228;2024-01-25T01:15:45;1012.45;;;93.95;;
52067;SDS011;60237;52.338;21.228;2024-01-25T01:18:12;1035.18;;;96.30;;
52067;SDS011;60237;52.338;21.228;2024-01-25T01:20:39;1006.65;;;93.50;;
52067;SDS011;60237;52.338;21.228;2024-01-25T01:23:06;1015.42;;;94.13;;
52067;SDS011;60237;52.338;21.228;2024-01-25T01:25:33;1037.95;;;96.47;;
52067;SDS011;60237;52.338;21.228;2024-01-25T01:27:59;1004.03;;;93.18;;
52067;SDS011;60237;52.338;21.228;2024-01-25T01:30:26;1014.25;;;93.80;;
52067;SDS011;60237;52.338;21.228;2024-01-25T01:32:53;1025.65;;;96.55;;
52067;SDS011;60237;52.338;21.228;2024-01-25T01:35:20;1040.10;;;96.72;;
52067;SDS011;60237;52.338;21.228;2024-01-25T01:37:46;1026.82;;;96.07;;
52067;SDS011;60237;52.338;21.228;2024-01-25T01:40:13;1016.25;;;94.53;;
52067;SDS011;60237;52.338;21.228;2024-01-25T01:42:40;1017.22;;;94.22;;
52067;SDS011;60237;52.338;21.228;2024-01-25T01:45:06;1046.35;;;98.40;;
52067;SDS011;60237;52.338;21.228;2024-01-25T01:47:33;1033.78;;;95.50;;
52067;SDS011;60237;52.338;21.228;2024-01-25T01:50:00;1049.25;;;97.88;;
52067;SDS011;60237;52.338;21.228;2024-01-25T01:52:28;1001.45;;;93.35;;
52067;SDS011;60237;52.338;21.228;2024-01-25T01:54:55;1046.65;;;99.25;;
52067;SDS011;60237;52.338;21.228;2024-01-25T01:57:23;1034.25;;;96.55;;
52067;SDS011;60237;52.338;21.228;2024-01-25T01:59:49;1077.72;;;101.20;;
52067;SDS011;60237;52.338;21.228;2024-01-25T02:02:16;1113.57;;;108.75;;
52067;SDS011;60237;52.338;21.228;2024-01-25T02:04:43;993.80;;;94.07;;
52067;SDS011;60237;52.338;21.228;2024-01-25T02:07:11;963.83;;;91.13;;
52067;SDS011;60237;52.338;21.228;2024-01-25T02:09:37;1056.20;;;100.18;;
52067;SDS011;60237;52.338;21.228;2024-01-25T02:12:04;973.70;;;90.70;;
52067;SDS011;60237;52.338;21.228;2024-01-25T02:14:31;954.85;;;88.80;;
52067;SDS011;60237;52.338;21.228;2024-01-25T02:16:57;1157.65;;;112.78;;
52067;SDS011;60237;52.338;21.228;2024-01-25T02:19:24;1030.47;;;98.03;;
52067;SDS011;60237;52.338;21.228;2024-01-25T02:21:51;1064.00;;;102.85;;
52067;SDS011;60237;52.338;21.228;2024-01-25T02:24:20;1184.57;;;115.53;;
52067;SDS011;60237;52.338;21.228;2024-01-25T02:26:47;1049.07;;;100.40;;
52067;SDS011;60237;52.338;21.228;2024-01-25T02:29:14;963.25;;;89.40;;
52067;SDS011;60237;52.338;21.228;2024-01-25T02:31:40;1166.95;;;112.50;;
52067;SDS011;60237;52.338;21.228;2024-01-25T02:34:07;1000.40;;;94.28;;
52067;SDS011;60237;52.338;21.228;2024-01-25T02:36:34;1027.90;;;97.95;;
52067;SDS011;60237;52.338;21.228;2024-01-25T02:39:00;1058.30;;;100.63;;
52067;SDS011;60237;52.338;21.228;2024-01-25T02:41:30;1059.07;;;101.35;;
52067;SDS011;60237;52.338;21.228;2024-01-25T02:43:57;952.80;;;88.78;;
52067;SDS011;60237;52.338;21.228;2024-01-25T02:46:24;1110.88;;;107.80;;
52067;SDS011;60237;52.338;21.228;2024-01-25T02:48:51;1128.88;;;109.78;;
52067;SDS011;60237;52.338;21.228;2024-01-25T02:51:17;1064.35;;;102.10;;
52067;SDS011;60237;52.338;21.228;2024-01-25T02:53:44;988.72;;;92.22;;
52067;SDS011;60237;52.338;21.228;2024-01-25T02:56:11;1091.65;;;105.90;;
52067;SDS011;60237;52.338;21.228;2024-01-25T02:58:37;966.00;;;90.32;;
52067;SDS011;60237;52.338;21.228;2024-01-25T03:01:04;1041.10;;;99.03;;
52067;SDS011;60237;52.338;21.228;2024-01-25T03:03:31;1080.82;;;103.35;;
52067;SDS011;60237;52.338;21.228;2024-01-25T03:05:57;1042.32;;;100.13;;
52067;SDS011;60237;52.338;21.228;2024-01-25T03:08:24;1144.65;;;111.32;;
52067;SDS011;60237;52.338;21.228;2024-01-25T03:10:51;1133.20;;;109.60;;
52067;SDS011;60237;52.338;21.228;2024-01-25T03:13:17;1041.88;;;98.65;;
52067;SDS011;60237;52.338;21.228;2024-01-25T03:15:46;1100.50;;;106.18;;
52067;SDS011;60237;52.338;21.228;2024-01-25T03:18:12;1086.43;;;104.15;;
52067;SDS011;60237;52.338;21.228;2024-01-25T03:20:39;997.13;;;94.22;;
52067;SDS011;60237;52.338;21.228;2024-01-25T03:23:06;989.78;;;93.55;;
52067;SDS011;60237;52.338;21.228;2024-01-25T03:25:32;1017.40;;;96.10;;
52067;SDS011;60237;52.338;21.228;2024-01-25T03:27:59;1015.80;;;97.30;;
52067;SDS011;60237;52.338;21.228;2024-01-25T03:30:26;1106.85;;;107.43;;
52067;SDS011;60237;52.338;21.228;2024-01-25T03:32:52;1056.78;;;101.75;;
52067;SDS011;60237;52.338;21.228;2024-01-25T03:35:19;1186.05;;;117.43;;
52067;SDS011;60237;52.338;21.228;2024-01-25T03:37:46;1048.78;;;99.90;;
52067;SDS011;60237;52.338;21.228;2024-01-25T03:40:12;1138.25;;;110.90;;
52067;SDS011;60237;52.338;21.228;2024-01-25T03:42:39;978.28;;;91.65;;
52067;SDS011;60237;52.338;21.228;2024-01-25T03:45:10;1002.65;;;95.25;;
52067;SDS011;60237;52.338;21.228;2024-01-25T03:47:37;1106.28;;;107.70;;
52067;SDS011;60237;52.338;21.228;2024-01-25T03:50:03;988.90;;;92.60;;
52067;SDS011;60237;52.338;21.228;2024-01-25T03:52:31;984.58;;;92.20;;
52067;SDS011;60237;52.338;21.228;2024-01-25T03:54:57;1062.28;;;102.82;;
52067;SDS011;60237;52.338;21.228;2024-01-25T03:57:24;1016.50;;;96.28;;
52067;SDS011;60237;52.338;21.228;2024-01-25T03:59:50;1026.07;;;97.80;;
52067;SDS011;60237;52.338;21.228;2024-01-25T04:02:18;1119.82;;;107.07;;
52067;SDS011;60237;52.338;21.228;2024-01-25T04:04:45;1037.20;;;98.25;;
52067;SDS011;60237;52.338;21.228;2024-01-25T04:07:12;1001.60;;;94.10;;
52067;SDS011;60237;52.338;21.228;2024-01-25T04:09:41;1013.72;;;95.65;;
52067;SDS011;60237;52.338;21.228;2024-01-25T04:12:08;1009.97;;;95.55;;
52067;SDS011;60237;52.338;21.228;2024-01-25T04:14:34;989.30;;;93.43;;
52067;SDS011;60237;52.338;21.228;2024-01-25T04:17:02;1024.28;;;96.97;;
52067;SDS011;60237;52.338;21.228;2024-01-25T04:19:29;975.40;;;91.35;;
52067;SDS011;60237;52.338;21.228;2024-01-25T04:21:55;983.45;;;93.03;;
52067;SDS011;60237;52.338;21.228;2024-01-25T04:24:22;1049.43;;;100.25;;
52067;SDS011;60237;52.338;21.228;2024-01-25T04:26:49;955.95;;;89.57;;
52067;SDS011;60237;52.338;21.228;2024-01-25T04:29:15;97.28;;;7.57;;
52067;SDS011;60237;52.338;21.228;2024-01-25T04:31:42;1054.35;;;101.18;;
52067;SDS011;60237;52.338;21.228;2024-01-25T04:34:09;1059.68;;;100.55;;
52067;SDS011;60237;52.338;21.228;2024-01-25T04:36:39;1084.18;;;105.22;;
52067;SDS011;60237;52.338;21.228;2024-01-25T04:39:06;1046.75;;;101.50;;
52067;SDS011;60237;52.338;21.228;2024-01-25T04:41:33;1130.53;;;110.25;;
52067;SDS011;60237;52.338;21.228;2024-01-25T04:43:59;953.78;;;89.03;;
52067;SDS011;60237;52.338;21.228;2024-01-25T04:46:26;1067.70;;;102.60;;
52067;SDS011;60237;52.338;21.228;2024-01-25T04:48:55;1109.47;;;106.90;;
52067;SDS011;60237;52.338;21.228;2024-01-25T04:51:22;1039.90;;;99.40;;
52067;SDS011;60237;52.338;21.228;2024-01-25T04:53:48;991.28;;;93.45;;
52067;SDS011;60237;52.338;21.228;2024-01-25T04:56:15;1180.88;;;116.18;;
52067;SDS011;60237;52.338;21.228;2024-01-25T04:58:42;940.55;;;87.82;;
52067;SDS011;60237;52.338;21.228;2024-01-25T05:01:08;1014.65;;;97.93;;
52067;SDS011;60237;52.338;21.228;2024-01-25T05:03:36;1081.40;;;103.05;;
52067;SDS011;60237;52.338;21.228;2024-01-25T05:06:03;1047.85;;;99.03;;
52067;SDS011;60237;52.338;21.228;2024-01-25T05:08:30;959.83;;;89.28;;
52067;SDS011;60237;52.338;21.228;2024-01-25T05:10:57;1127.20;;;107.68;;
52067;SDS011;60237;52.338;21.228;2024-01-25T05:13:24;1093.93;;;102.10;;
52067;SDS011;60237;52.338;21.228;2024-01-25T05:15:50;1018.20;;;94.05;;
52067;SDS011;60237;52.338;21.228;2024-01-25T05:18:17;1028.25;;;95.85;;
52067;SDS011;60237;52.338;21.228;2024-01-25T05:20:44;1025.03;;;95.00;;
52067;SDS011;60237;52.338;21.228;2024-01-25T05:23:10;1015.65;;;94.80;;
52067;SDS011;60237;52.338;21.228;2024-01-25T05:25:37;1150.45;;;109.43;;
52067;SDS011;60237;52.338;21.228;2024-01-25T05:28:04;1101.90;;;104.25;;
52067;SDS011;60237;52.338;21.228;2024-01-25T05:30:31;999.78;;;92.88;;
52067;SDS011;60237;52.338;21.228;2024-01-25T05:32:58;1062.53;;;99.03;;
52067;SDS011;60237;52.338;21.228;2024-01-25T05:35:25;1027.85;;;95.63;;
52067;SDS011;60237;52.338;21.228;2024-01-25T05:37:52;1037.07;;;96.00;;
52067;SDS011;60237;52.338;21.228;2024-01-25T05:40:18;1023.97;;;94.80;;
52067;SDS011;60237;52.338;21.228;2024-01-25T05:42:45;1022.53;;;94.25;;
52067;SDS011;60237;52.338;21.228;2024-01-25T05:45:12;982.22;;;90.40;;
52067;SDS011;60237;52.338;21.228;2024-01-25T05:47:38;1207.45;;;116.45;;
52067;SDS011;60237;52.338;21.228;2024-01-25T05:50:05;1103.50;;;104.63;;
52067;SDS011;60237;52.338;21.228;2024-01-25T05:52:33;994.53;;;90.88;;
52067;SDS011;60237;52.338;21.228;2024-01-25T05:55:06;1089.63;;;103.43;;
52067;SDS011;60237;52.338;21.228;2024-01-25T05:57:34;1149.10;;;108.88;;
52067;SDS011;60237;52.338;21.228;2024-01-25T06:00:03;1121.68;;;106.25;;
52067;SDS011;60237;52.338;21.228;2024-01-25T06:02:33;1073.38;;;101.97;;
52067;SDS011;60237;52.338;21.228;2024-01-25T06:05:00;1272.25;;;124.95;;
52067;SDS011;60237;52.338;21.228;2024-01-25T06:07:28;1110.30;;;104.95;;
52067;SDS011;60237;52.338;21.228;2024-01-25T06:09:55;1093.18;;;102.60;;
52067;SDS011;60237;52.338;21.228;2024-01-25T06:12:22;1218.53;;;118.25;;
52067;SDS011;60237;52.338;21.228;2024-01-25T06:14:48;1002.40;;;94.22;;
52067;SDS011;60237;52.338;21.228;2024-01-25T06:17:15;978.30;;;91.60;;
52067;SDS011;60237;52.338;21.228;2024-01-25T06:19:42;989.13;;;93.38;;
52067;SDS011;60237;52.338;21.228;2024-01-25T06:22:08;1057.18;;;100.65;;
52067;SDS011;60237;52.338;21.228;2024-01-25T06:24:35;1036.97;;;98.60;;
52067;SDS011;60237;52.338;21.228;2024-01-25T06:27:02;1221.13;;;121.93;;
52067;SDS011;60237;52.338;21.228;2024-01-25T06:29:28;1159.47;;;114.80;;
52067;SDS011;60237;52.338;21.228;2024-01-25T06:31:55;1098.30;;;106.35;;
52067;SDS011;60237;52.338;21.228;2024-01-25T06:34:21;1114.75;;;108.68;;
52067;SDS011;60237;52.338;21.228;2024-01-25T06:36:48;1119.88;;;107.75;;
52067;SDS011;60237;52.338;21.228;2024-01-25T06:39:15;995.25;;;93.70;;
52067;SDS011;60237;52.338;21.228;2024-01-25T06:41:43;1036.05;;;98.25;;
52067;SDS011;60237;52.338;21.228;2024-01-25T06:44:09;1050.40;;;100.00;;
52067;SDS011;60237;52.338;21.228;2024-01-25T06:46:36;1025.00;;;96.43;;
52067;SDS011;60237;52.338;21.228;2024-01-25T06:49:04;1169.15;;;114.00;;
52067;SDS011;60237;52.338;21.228;2024-01-25T06:51:31;1158.28;;;112.32;;
52067;SDS011;60237;52.338;21.228;2024-01-25T06:53:59;1128.50;;;110.53;;
52067;SDS011;60237;52.338;21.228;2024-01-25T06:56:28;1137.45;;;109.68;;
52067;SDS011;60237;52.338;21.228;2024-01-25T06:58:55;1101.47;;;105.85;;
52067;SDS011;60237;52.338;21.228;2024-01-25T07:01:22;1021.67;;;96.45;;
52067;SDS011;60237;52.338;21.228;2024-01-25T07:03:50;990.17;;;93.18;;
52067;SDS011;60237;52.338;21.228;2024-01-25T07:06:20;1067.65;;;102.18;;
52067;SDS011;60237;52.338;21.228;2024-01-25T07:08:46;1034.82;;;97.13;;
52067;SDS011;60237;52.338;21.228;2024-01-25T07:11:13;979.72;;;92.05;;
52067;SDS011;60237;52.338;21.228;2024-01-25T07:13:43;1046.90;;;99.43;;
52067;SDS011;60237;52.338;21.228;2024-01-25T07:16:09;1060.40;;;100.65;;
52067;SDS011;60237;52.338;21.228;2024-01-25T07:18:37;1079.50;;;103.57;;
52067;SDS011;60237;52.338;21.228;2024-01-25T07:21:04;1063.03;;;103.03;;
52067;SDS011;60237;52.338;21.228;2024-01-25T07:23:32;925.28;;;85.07;;
52067;SDS011;60237;52.338;21.228;2024-01-25T07:25:59;920.67;;;85.32;;
52067;SDS011;60237;52.338;21.228;2024-01-25T07:28:26;913.47;;;84.32;;
52067;SDS011;60237;52.338;21.228;2024-01-25T07:30:52;987.33;;;93.18;;
52067;SDS011;60237;52.338;21.228;2024-01-25T07:33:19;959.25;;;90.28;;
52067;SDS011;60237;52.338;21.228;2024-01-25T07:35:46;964.88;;;89.72;;
52067;SDS011;60237;52.338;21.228;2024-01-25T07:38:12;879.78;;;80.15;;
52067;SDS011;60237;52.338;21.228;2024-01-25T07:40:39;923.42;;;85.50;;
52067;SDS011;60237;52.338;21.228;2024-01-25T07:43:06;389.48;;;30.98;;
52067;SDS011;60237;52.338;21.228;2024-01-25T07:45:38;191.77;;;15.90;;
52067;SDS011;60237;52.338;21.228;2024-01-25T07:48:07;147.60;;;12.05;;
52067;SDS011;60237;52.338;21.228;2024-01-25T07:50:40;411.73;;;33.17;;
52067;SDS011;60237;52.338;21.228;2024-01-25T07:53:08;687.47;;;58.15;;
52067;SDS011;60237;52.338;21.228;2024-01-25T07:55:35;650.30;;;55.35;;
52067;SDS011;60237;52.338;21.228;2024-01-25T07:58:02;407.15;;;31.35;;
52067;SDS011;60237;52.338;21.228;2024-01-25T08:00:29;560.45;;;44.72;;
52067;SDS011;60237;52.338;21.228;2024-01-25T08:02:56;255.70;;;19.95;;
52067;SDS011;60237;52.338;21.228;2024-01-25T08:05:22;353.38;;;27.48;;
52067;SDS011;60237;52.338;21.228;2024-01-25T08:08:02;683.00;;;57.65;;
52067;SDS011;60237;52.338;21.228;2024-01-25T08:10:29;690.33;;;58.03;;
52067;SDS011;60237;52.338;21.228;2024-01-25T08:12:55;715.00;;;60.38;;
52067;SDS011;60237;52.338;21.228;2024-01-25T08:15:32;670.10;;;55.75;;
52067;SDS011;60237;52.338;21.228;2024-01-25T08:17:59;202.07;;;15.55;;
52067;SDS011;60237;52.338;21.228;2024-01-25T08:20:58;180.02;;;13.02;;
52067;SDS011;60237;52.338;21.228;2024-01-25T08:23:33;562.15;;;46.15;;
52067;SDS011;60237;52.338;21.228;2024-01-25T08:26:04;216.65;;;17.05;;
52067;SDS011;60237;52.338;21.228;2024-01-25T08:28:47;228.43;;;17.08;;
52067;SDS011;60237;52.338;21.228;2024-01-25T08:31:54;614.05;;;51.42;;
52067;SDS011;60237;52.338;21.228;2024-01-25T08:34:22;527.20;;;44.05;;
52067;SDS011;60237;52.338;21.228;2024-01-25T08:36:49;723.55;;;62.60;;
52067;SDS011;60237;52.338;21.228;2024-01-25T08:39:16;522.90;;;42.45;;
52067;SDS011;60237;52.338;21.228;2024-01-25T08:41:43;621.40;;;51.40;;
52067;SDS011;60237;52.338;21.228;2024-01-25T08:44:11;710.80;;;61.13;;
52067;SDS011;60237;52.338;21.228;2024-01-25T08:46:38;519.47;;;40.42;;
52067;SDS011;60237;52.338;21.228;2024-01-25T08:49:05;568.65;;;45.35;;
52067;SDS011;60237;52.338;21.228;2024-01-25T08:51:35;252.88;;;21.15;;
52067;SDS011;60237;52.338;21.228;2024-01-25T08:54:02;699.63;;;59.95;;
52067;SDS011;60237;52.338;21.228;2024-01-25T08:56:30;395.13;;;31.30;;
52067;SDS011;60237;52.338;21.228;2024-01-25T08:58:56;385.70;;;30.45;;
52067;SDS011;60237;52.338;21.228;2024-01-25T09:01:23;568.03;;;48.67;;
52067;SDS011;60237;52.338;21.228;2024-01-25T09:03:49;743.85;;;65.28;;
52067;SDS011;60237;52.338;21.228;2024-01-25T09:06:16;805.45;;;72.32;;
52067;SDS011;60237;52.338;21.228;2024-01-25T09:08:43;765.05;;;67.35;;
52067;SDS011;60237;52.338;21.228;2024-01-25T09:11:10;788.88;;;71.15;;
52067;SDS011;60237;52.338;21.228;2024-01-25T09:13:36;901.88;;;82.70;;
52067;SDS011;60237;52.338;21.228;2024-01-25T09:16:11;686.53;;;59.92;;
52067;SDS011;60237;52.338;21.228;2024-01-25T09:18:38;800.42;;;71.20;;
52067;SDS011;60237;52.338;21.228;2024-01-25T09:21:05;868.65;;;80.20;;
52067;SDS011;60237;52.338;21.228;2024-01-25T09:23:31;818.10;;;74.30;;
52067;SDS011;60237;52.338;21.228;2024-01-25T09:25:58;752.53;;;67.07;;
52067;SDS011;60237;52.338;21.228;2024-01-25T09:28:25;590.97;;;48.72;;
52067;SDS011;60237;52.338;21.228;2024-01-25T09:30:51;503.52;;;41.33;;
52067;SDS011;60237;52.338;21.228;2024-01-25T09:33:18;486.98;;;38.58;;
52067;SDS011;60237;52.338;21.228;2024-01-25T09:35:45;582.30;;;47.70;;
52067;SDS011;60237;52.338;21.228;2024-01-25T09:38:14;619.50;;;51.78;;
52067;SDS011;60237;52.338;21.228;2024-01-25T09:40:41;672.67;;;57.75;;
52067;SDS011;60237;52.338;21.228;2024-01-25T09:43:08;622.13;;;51.72;;
52067;SDS011;60237;52.338;21.228;2024-01-25T09:45:34;524.15;;;41.50;;
52067;SDS011;60237;52.338;21.228;2024-01-25T09:48:01;441.67;;;34.47;;
52067;SDS011;60237;52.338;21.228;2024-01-25T09:50:31;239.70;;;18.85;;
52067;SDS011;60237;52.338;21.228;2024-01-25T09:53:00;192.80;;;15.57;;
52067;SDS011;60237;52.338;21.228;2024-01-25T09:55:27;194.02;;;14.45;;
52067;SDS011;60237;52.338;21.228;2024-01-25T09:57:54;212.75;;;16.95;;
52067;SDS011;60237;52.338;21.228;2024-01-25T10:00:24;350.48;;;26.90;;
52067;SDS011;60237;52.338;21.228;2024-01-25T10:02:51;526.80;;;42.63;;
52067;SDS011;60237;52.338;21.228;2024-01-25T10:05:18;618.83;;;52.80;;
52067;SDS011;60237;52.338;21.228;2024-01-25T10:07:48;794.40;;;70.80;;
52067;SDS011;60237;52.338;21.228;2024-01-25T10:10:16;836.92;;;75.72;;
52067;SDS011;60237;52.338;21.228;2024-01-25T10:12:42;806.92;;;72.70;;
52067;SDS011;60237;52.338;21.228;2024-01-25T10:15:10;829.45;;;75.07;;
52067;SDS011;60237;52.338;21.228;2024-01-25T10:17:38;815.63;;;73.70;;
52067;SDS011;60237;52.338;21.228;2024-01-25T10:20:25;829.63;;;74.53;;
52067;SDS011;60237;52.338;21.228;2024-01-25T10:22:57;737.00;;;63.83;;
52067;SDS011;60237;52.338;21.228;2024-01-25T10:25:26;733.47;;;63.08;;
52067;SDS011;60237;52.338;21.228;2024-01-25T10:27:53;692.38;;;58.78;;
52067;SDS011;60237;52.338;21.228;2024-01-25T10:30:20;790.63;;;70.40;;
52067;SDS011;60237;52.338;21.228;2024-01-25T10:32:48;831.97;;;75.32;;
52067;SDS011;60237;52.338;21.228;2024-01-25T10:35:17;836.25;;;75.28;;
52067;SDS011;60237;52.338;21.228;2024-01-25T10:37:50;845.92;;;75.68;;
52067;SDS011;60237;52.338;21.228;2024-01-25T10:40:18;814.67;;;72.60;;
52067;SDS011;60237;52.338;21.228;2024-01-25T10:42:45;844.53;;;76.00;;
52067;SDS011;60237;52.338;21.228;2024-01-25T10:45:12;844.63;;;76.60;;
52067;SDS011;60237;52.338;21.228;2024-01-25T10:47:39;850.85;;;77.20;;
52067;SDS011;60237;52.338;21.228;2024-01-25T10:50:11;826.28;;;74.47;;
52067;SDS011;60237;52.338;21.228;2024-01-25T10:52:39;898.78;;;82.80;;
52067;SDS011;60237;52.338;21.228;2024-01-25T10:55:07;790.35;;;71.75;;
52067;SDS011;60237;52.338;21.228;2024-01-25T10:57:35;758.75;;;66.88;;
52067;SDS011;60237;52.338;21.228;2024-01-25T11:00:02;724.45;;;62.85;;
52067;SDS011;60237;52.338;21.228;2024-01-25T11:02:30;741.47;;;65.50;;
52067;SDS011;60237;52.338;21.228;2024-01-25T11:04:57;778.65;;;69.35;;
52067;SDS011;60237;52.338;21.228;2024-01-25T11:07:26;836.17;;;75.78;;
52067;SDS011;60237;52.338;21.228;2024-01-25T11:09:54;823.80;;;73.63;;
52067;SDS011;60237;52.338;21.228;2024-01-25T11:12:21;867.17;;;79.03;;
52067;SDS011;60237;52.338;21.228;2024-01-25T11:14:54;894.25;;;82.82;;
52067;SDS011;60237;52.338;21.228;2024-01-25T11:17:22;900.35;;;81.88;;
52067;SDS011;60237;52.338;21.228;2024-01-25T11:19:49;917.63;;;84.60;;
52067;SDS011;60237;52.338;21.228;2024-01-25T11:22:17;843.72;;;76.10;;
52067;SDS011;60237;52.338;21.228;2024-01-25T11:24:44;892.88;;;82.63;;
52067;SDS011;60237;52.338;21.228;2024-01-25T11:27:12;893.75;;;82.40;;
52067;SDS011;60237;52.338;21.228;2024-01-25T11:29:39;882.67;;;80.50;;
52067;SDS011;60237;52.338;21.228;2024-01-25T11:32:09;891.30;;;81.90;;
52067;SDS011;60237;52.338;21.228;2024-01-25T11:34:36;918.60;;;84.57;;
52067;SDS011;60237;52.338;21.228;2024-01-25T11:37:03;876.88;;;79.78;;
52067;SDS011;60237;52.338;21.228;2024-01-25T11:39:29;920.40;;;84.68;;
52067;SDS011;60237;52.338;21.228;2024-01-25T11:41:56;881.95;;;80.47;;
52067;SDS011;60237;52.338;21.228;2024-01-25T11:44:23;872.75;;;79.72;;
52067;SDS011;60237;52.338;21.228;2024-01-25T11:46:53;906.33;;;83.18;;
52067;SDS011;60237;52.338;21.228;2024-01-25T11:49:20;683.15;;;58.38;;
52067;SDS011;60237;52.338;21.228;2024-01-25T11:51:46;823.63;;;74.18;;
52067;SDS011;60237;52.338;21.228;2024-01-25T11:54:13;915.20;;;84.68;;
52067;SDS011;60237;52.338;21.228;2024-01-25T11:56:39;859.50;;;77.88;;
52067;SDS011;60237;52.338;21.228;2024-01-25T11:59:08;833.08;;;74.93;;
52067;SDS011;60237;52.338;21.228;2024-01-25T12:01:36;872.78;;;79.50;;
52067;SDS011;60237;52.338;21.228;2024-01-25T12:04:03;853.10;;;77.07;;
52067;SDS011;60237;52.338;21.228;2024-01-25T12:06:30;844.88;;;75.45;;
52067;SDS011;60237;52.338;21.228;2024-01-25T12:09:05;871.97;;;78.40;;
52067;SDS011;60237;52.338;21.228;2024-01-25T12:11:33;831.33;;;74.32;;
52067;SDS011;60237;52.338;21.228;2024-01-25T12:13:59;604.17;;;49.38;;
52067;SDS011;60237;52.338;21.228;2024-01-25T12:16:26;570.17;;;45.33;;
52067;SDS011;60237;52.338;21.228;2024-01-25T12:18:53;541.45;;;43.53;;
52067;SDS011;60237;52.338;21.228;2024-01-25T12:21:20;724.70;;;61.70;;
52067;SDS011;60237;52.338;21.228;2024-01-25T12:23:46;717.17;;;61.47;;
52067;SDS011;60237;52.338;21.228;2024-01-25T12:26:13;690.78;;;58.70;;
52067;SDS011;60237;52.338;21.228;2024-01-25T12:28:42;777.85;;;68.80;;
52067;SDS011;60237;52.338;21.228;2024-01-25T12:31:09;874.55;;;79.55;;
52067;SDS011;60237;52.338;21.228;2024-01-25T12:33:36;896.85;;;82.35;;
52067;SDS011;60237;52.338;21.228;2024-01-25T12:36:03;907.15;;;83.20;;
52067;SDS011;60237;52.338;21.228;2024-01-25T12:38:30;929.88;;;84.53;;
52067;SDS011;60237;52.338;21.228;2024-01-25T12:41:02;932.08;;;85.38;;
52067;SDS011;60237;52.338;21.228;2024-01-25T12:43:30;906.40;;;82.55;;
52067;SDS011;60237;52.338;21.228;2024-01-25T12:45:58;883.45;;;79.95;;
52067;SDS011;60237;52.338;21.228;2024-01-25T12:51:10;894.65;;;81.07;;
52067;SDS011;60237;52.338;21.228;2024-01-25T12:53:37;905.83;;;82.30;;
52067;SDS011;60237;52.338;21.228;2024-01-25T12:56:05;906.67;;;82.82;;
52067;SDS011;60237;52.338;21.228;2024-01-25T12:58:31;900.55;;;81.70;;
52067;SDS011;60237;52.338;21.228;2024-01-25T13:00:58;886.30;;;81.57;;
52067;SDS011;60237;52.338;21.228;2024-01-25T13:03:25;903.55;;;82.32;;
52067;SDS011;60237;52.338;21.228;2024-01-25T13:05:51;864.08;;;78.35;;
52067;SDS011;60237;52.338;21.228;2024-01-25T13:08:18;897.22;;;81.95;;
52067;SDS011;60237;52.338;21.228;2024-01-25T13:10:45;878.00;;;80.00;;
52067;SDS011;60237;52.338;21.228;2024-01-25T13:13:12;850.65;;;76.57;;
52067;SDS011;60237;52.338;21.228;2024-01-25T13:15:38;854.08;;;78.07;;
52067;SDS011;60237;52.338;21.228;2024-01-25T13:18:05;839.58;;;75.70;;
52067;SDS011;60237;52.338;21.228;2024-01-25T13:20:31;860.53;;;77.60;;
52067;SDS011;60237;52.338;21.228;2024-01-25T13:22:58;787.63;;;69.25;;
52067;SDS011;60237;52.338;21.228;2024-01-25T13:25:25;789.30;;;69.00;;
52067;SDS011;60237;52.338;21.228;2024-01-25T13:27:51;758.85;;;65.97;;
52067;SDS011;60237;52.338;21.228;2024-01-25T13:30:19;843.22;;;76.25;;
52067;SDS011;60237;52.338;21.228;2024-01-25T13:32:45;794.88;;;69.55;;
52067;SDS011;60237;52.338;21.228;2024-01-25T13:35:12;806.85;;;71.00;;
52067;SDS011;60237;52.338;21.228;2024-01-25T13:37:39;828.95;;;74.35;;
52067;SDS011;60237;52.338;21.228;2024-01-25T13:40:05;817.53;;;73.43;;
52067;SDS011;60237;52.338;21.228;2024-01-25T13:42:32;899.95;;;82.32;;
52067;SDS011;60237;52.338;21.228;2024-01-25T13:44:59;901.72;;;82.93;;
52067;SDS011;60237;52.338;21.228;2024-01-25T13:47:25;833.60;;;75.45;;
52067;SDS011;60237;52.338;21.228;2024-01-25T13:49:53;803.28;;;71.40;;
52067;SDS011;60237;52.338;21.228;2024-01-25T13:52:20;829.45;;;74.25;;
52067;SDS011;60237;52.338;21.228;2024-01-25T13:54:47;831.15;;;74.88;;